Terminal Aerodrome Forecast
Issued by NWS Cleveland, OH

Home | Current Version | Previous Version | Graphics & Text | Print | Product List | Glossary On
Versions: 1 2 3 4 5 6 7 8 9 10 11 12 13 14 15 16 17 18 19
000
FTUS41 KCLE 181120
TAFMFD
TAF
KMFD 181120Z 1812/1912 05010KT P6SM BKN200
     FM181500 09015G25KT P6SM BKN120
     FM181800 09018G28KT P6SM VCSH OVC045
      TEMPO 1818/1821 5SM -SHRA BR OVC025
     FM182100 10018G28KT 6SM -SHRA BR OVC025
     FM190200 10016G24KT 4SM -SHRA OVC007
     FM191100 15014KT 6SM -SHRA OVC012=

USA.gov is the U.S. government's official web portal to all federal, state and local government web resources and services.